»·PEaware :: N5914R KMHV-KSBD

N5914R :: KMHV-KSBD

FLIGHT INFORMATION

Flight Status: Arrived
Operator: Privately registered:
United States
More flights under this callsign
Pilot: Scott G. (88)
Aircraft: Unknown
(P32R)
More flights by this aircraft type
Origin: KMHV Mojave
United States
Destination: KSBD San Bernardino Intl
United States
More flights between these airports :: More routes between these airports
Route: +LHS V459 DARTS V186 PDZ
File this flight plan on PilotEdge
Remarks:
Altitude:
(Current/Filed)
11,500ft
Speed:
(Current/Filed)
160kts
Departed: 05-Jan-17 12:10 PM
Arrived: 05-Jan-17 01:22 PM
Distance/Time
Traveled:
73nm/1:12
Distance/Time
To Go:
Arrived

Flight Plot

Page will automatically refresh every two minutes.

Flight plan parsing failed; only flown route is shown


Map Options




Map Legend


Flown Route
Filed Route
Departure Airport
Arrival Airport
Navaid (VOR, NDB)
Fix

Horizontal Profiles

Position Reports

Time Latitude Longitude Heading Altitude Ground
Speed
05-Jan-17 11:30 35.056954 -118.157103 76 2794ft 0kts
05-Jan-17 11:31 35.056954 -118.157103 76 2794ft 0kts
05-Jan-17 11:32 35.056954 -118.157103 76 2794ft 0kts
05-Jan-17 11:33 35.056954 -118.157103 76 2794ft 0kts
05-Jan-17 11:34 35.056954 -118.157103 76 2794ft 0kts
05-Jan-17 11:35 35.056954 -118.157103 76 2794ft 0kts
05-Jan-17 11:36 35.056954 -118.157103 76 2794ft 0kts
05-Jan-17 11:37 35.056954 -118.157103 76 2794ft 0kts
05-Jan-17 11:38 35.056954 -118.157103 76 2794ft 0kts
05-Jan-17 11:39 35.056954 -118.157103 76 2794ft 0kts
05-Jan-17 11:40 35.056954 -118.157103 76 2794ft 0kts
05-Jan-17 11:41 35.056954 -118.157103 76 2794ft 0kts
05-Jan-17 11:42 35.056954 -118.157103 76 2794ft 0kts
05-Jan-17 11:43 35.056954 -118.157103 76 2794ft 0kts
05-Jan-17 11:44 35.056954 -118.157103 76 2794ft 0kts
05-Jan-17 11:45 35.056954 -118.157103 76 2794ft 0kts
05-Jan-17 11:46 35.056954 -118.157103 76 2794ft 0kts
05-Jan-17 11:47 35.056954 -118.157103 76 2794ft 0kts
05-Jan-17 11:48 35.056954 -118.157103 76 2794ft 0kts
05-Jan-17 11:49 35.056954 -118.157103 76 2794ft 0kts
05-Jan-17 11:50 35.056954 -118.157103 76 2794ft 0kts
05-Jan-17 11:51 35.056954 -118.157103 76 2794ft 0kts
05-Jan-17 11:52 35.057043 -118.157059 3 2794ft 4kts
05-Jan-17 11:53 35.057369 -118.157057 359 2794ft 0kts
05-Jan-17 11:54 35.057369 -118.157057 359 2794ft 0kts
05-Jan-17 11:55 35.057369 -118.157057 359 2794ft 0kts
05-Jan-17 11:56 35.057369 -118.157057 359 2794ft 0kts
05-Jan-17 11:57 35.057369 -118.157057 359 2794ft 0kts
05-Jan-17 11:58 35.057369 -118.157057 359 2794ft 0kts
05-Jan-17 11:59 35.057369 -118.157057 359 2794ft 0kts
05-Jan-17 12:00 35.057369 -118.157057 359 2794ft 0kts
05-Jan-17 12:01 35.057369 -118.157057 359 2794ft 0kts
05-Jan-17 12:02 35.057369 -118.157057 359 2794ft 0kts
05-Jan-17 12:03 35.057369 -118.157056 358 2794ft 0kts
05-Jan-17 12:04 35.057607 -118.154724 90 2794ft 17kts
05-Jan-17 12:05 35.057600 -118.146574 93 2794ft 29kts
05-Jan-17 12:06 35.058356 -118.142627 2 2794ft 0kts
05-Jan-17 12:07 35.058356 -118.142627 2 2794ft 0kts
05-Jan-17 12:08 35.058356 -118.142627 2 2794ft 0kts
05-Jan-17 12:09 35.059178 -118.144011 269 2794ft 30kts
05-Jan-17 12:10 35.060628 -118.167243 310 3832ft 90kts
05-Jan-17 12:11 35.085562 -118.150087 41 5160ft 131kts
05-Jan-17 12:12 35.108475 -118.118159 40 6584ft 139kts
05-Jan-17 12:13 35.094376 -118.085395 210 7478ft 128kts
05-Jan-17 12:14 35.072133 -118.101462 223 7984ft 135kts
05-Jan-17 12:15 35.052938 -118.124608 233 8118ft 138kts
05-Jan-17 12:16 35.035140 -118.146362 234 8677ft 127kts
05-Jan-17 12:17 35.019479 -118.165569 236 9399ft 117kts
05-Jan-17 12:18 35.003164 -118.185632 237 10250ft 115kts
05-Jan-17 12:19 34.987311 -118.205131 238 10907ft 117kts
05-Jan-17 12:20 34.970830 -118.225437 237 10994ft 128kts
05-Jan-17 12:21 34.953523 -118.246638 237 10993ft 131kts
05-Jan-17 12:22 34.935818 -118.268314 237 10993ft 131kts
05-Jan-17 12:23 34.918304 -118.289757 237 10993ft 132kts
05-Jan-17 12:24 34.900222 -118.311894 237 10993ft 132kts
05-Jan-17 12:25 34.883540 -118.332296 237 10991ft 131kts
05-Jan-17 12:26 34.861373 -118.359544 234 10990ft 125kts
05-Jan-17 12:27 34.840950 -118.384402 234 10990ft 124kts
05-Jan-17 12:28 34.818490 -118.411805 234 10989ft 125kts
05-Jan-17 12:29 34.796099 -118.439129 234 10989ft 126kts
05-Jan-17 12:30 34.776365 -118.463196 234 10989ft 126kts
05-Jan-17 12:31 34.756819 -118.487022 234 10989ft 127kts
05-Jan-17 12:32 34.738379 -118.509490 234 10989ft 128kts
05-Jan-17 12:33 34.718811 -118.533309 234 11007ft 128kts
05-Jan-17 12:34 34.699984 -118.556219 234 11008ft 129kts
05-Jan-17 12:35 34.679349 -118.580123 216 11000ft 141kts
05-Jan-17 12:36 34.646102 -118.559744 159 11008ft 181kts
05-Jan-17 12:37 34.615072 -118.538180 165 11008ft 177kts
05-Jan-17 12:38 34.580963 -118.517342 167 11008ft 176kts
05-Jan-17 12:39 34.547963 -118.497837 167 11009ft 176kts
05-Jan-17 12:40 34.514217 -118.478114 166 10718ft 184kts
05-Jan-17 12:41 34.479065 -118.457535 166 10236ft 182kts
05-Jan-17 12:42 34.446877 -118.438735 165 9732ft 177kts
05-Jan-17 12:43 34.415588 -118.420486 164 9243ft 172kts
05-Jan-17 12:44 34.385070 -118.402709 164 8752ft 167kts
05-Jan-17 12:45 34.352709 -118.383849 163 8207ft 159kts
05-Jan-17 12:46 34.325957 -118.368295 162 7743ft 156kts
05-Jan-17 12:47 34.298637 -118.352421 161 7259ft 153kts
05-Jan-17 12:48 34.270746 -118.336206 161 7044ft 149kts
05-Jan-17 12:49 34.243125 -118.320151 161 7028ft 145kts
05-Jan-17 12:50 34.217798 -118.305466 161 7030ft 144kts
05-Jan-17 12:51 34.190854 -118.289852 160 7033ft 143kts
05-Jan-17 12:52 34.164721 -118.274715 160 7035ft 142kts
05-Jan-17 12:53 34.147963 -118.241607 121 7040ft 157kts
05-Jan-17 12:54 34.136699 -118.208025 120 7044ft 155kts
05-Jan-17 12:55 34.125710 -118.174055 119 7049ft 152kts
05-Jan-17 12:56 34.115000 -118.140613 119 7054ft 150kts
05-Jan-17 12:57 34.103142 -118.103490 118 7060ft 148kts
05-Jan-17 12:58 34.090722 -118.065553 101 7067ft 164kts
05-Jan-17 12:59 34.081789 -118.035771 119 7065ft 152kts
05-Jan-17 13:00 34.073453 -118.010157 119 7065ft 150kts
05-Jan-17 13:01 34.064571 -117.982642 119 7064ft 151kts
05-Jan-17 13:02 34.057423 -117.950242 102 6874ft 169kts
05-Jan-17 13:03 34.056219 -117.934795 102 6648ft 170kts
05-Jan-17 13:04 34.053191 -117.899686 103 6096ft 169kts
05-Jan-17 13:05 34.050649 -117.873418 103 5675ft 167kts
05-Jan-17 13:06 34.044793 -117.820258 103 5066ft 152kts
05-Jan-17 13:07 34.039662 -117.772403 103 5063ft 142kts
05-Jan-17 13:08 34.034759 -117.725556 103 5064ft 141kts
05-Jan-17 13:09 34.029561 -117.677976 103 4648ft 146kts
05-Jan-17 13:10 34.023340 -117.629950 103 4073ft 139kts
05-Jan-17 13:11 34.017765 -117.587480 105 4061ft 121kts
05-Jan-17 13:12 34.011652 -117.548328 105 4063ft 118kts
05-Jan-17 13:13 34.013649 -117.509547 75 4064ft 123kts
05-Jan-17 13:14 34.024550 -117.472713 75 4064ft 123kts
05-Jan-17 13:15 34.036054 -117.434125 75 4064ft 123kts
05-Jan-17 13:16 34.046178 -117.400207 75 3721ft 109kts
05-Jan-17 13:17 34.055286 -117.369583 75 3214ft 95kts
05-Jan-17 13:18 34.064497 -117.338597 73 2700ft 101kts
05-Jan-17 13:19 34.073713 -117.307651 72 2176ft 95kts
05-Jan-17 13:20 34.082244 -117.278945 71 1681ft 92kts
05-Jan-17 13:21 34.090403 -117.251475 71 1206ft 78kts
05-Jan-17 13:22 34.094022 -117.241315 45 1160ft 7kts

Navigation Log

Ident Type
Flight plan parsing failed, navigation log unavailable